Time;durP1;ratioP1;P1;durP2;ratioP2;P2;SDS_P1;SDS_P2;PMS_P1;PMS_P2;Temp;Humidity;BMP_temperature;BMP_pressure;BME280_temperature;BME280_humidity;BME280_pressure;Samples;Min_cycle;Max_cycle;Signal;HPM_P1;HPM_P2
2022/06/03 00:00:50;;;;;;;0.45;0.25;;;12.20;99.90;;;;;;5035159;28;20021;-76
2022/06/03 00:03:24;;;;;;;2.45;0.38;;;12.20;99.90;;;;;;5034605;28;20046;-76
2022/06/03 00:06:21;;;;;;;2.50;0.55;;;12.20;99.90;;;;;;5034651;28;20030;-76
2022/06/03 00:09:22;;;;;;;2.38;0.32;;;12.20;99.90;;;;;;5034674;28;20025;-76
2022/06/03 00:11:53;;;;;;;1.80;0.30;;;12.10;99.90;;;;;;5012676;28;20030;-73
2022/06/03 00:14:56;;;;;;;0.63;0.43;;;12.10;99.90;;;;;;5029791;28;20065;-76
2022/06/03 00:17:38;;;;;;;3.97;0.73;;;12.00;99.90;;;;;;5033734;28;20033;-76
2022/06/03 00:20:57;;;;;;;0.63;0.25;;;12.00;99.90;;;;;;5034502;28;20108;-76
2022/06/03 00:23:35;;;;;;;1.30;0.30;;;12.00;99.90;;;;;;5017400;28;20041;-76
2022/06/03 00:26:26;;;;;;;1.27;0.28;;;11.90;99.90;;;;;;5034272;28;20029;-76
2022/06/03 00:28:57;;;;;;;1.02;0.75;;;11.90;99.90;;;;;;5032970;28;20502;-76
2022/06/03 00:31:43;;;;;;;0.95;0.20;;;11.90;99.90;;;;;;5034243;28;20029;-76
2022/06/03 00:34:45;;;;;;;2.15;0.30;;;11.80;99.90;;;;;;5034000;28;20056;-76
2022/06/03 00:37:26;;;;;;;1.10;0.30;;;11.80;99.90;;;;;;5034046;28;20073;-76
2022/06/03 00:40:16;;;;;;;0.50;0.28;;;11.80;99.90;;;;;;5034651;28;20021;-76
2022/06/03 00:43:22;;;;;;;1.73;0.30;;;11.70;99.90;;;;;;5034009;28;20033;-76
2022/06/03 00:45:57;;;;;;;1.58;0.32;;;11.70;99.90;;;;;;5033963;28;20028;-75
2022/06/03 00:48:33;;;;;;;2.40;0.30;;;11.60;99.90;;;;;;5034567;28;20060;-76
2022/06/03 00:51:17;;;;;;;3.03;0.20;;;11.60;99.90;;;;;;5033869;28;20025;-76
2022/06/03 00:54:08;;;;;;;2.47;0.28;;;11.60;99.90;;;;;;5034486;28;20112;-75
2022/06/03 00:56:57;;;;;;;2.10;0.15;;;11.50;99.90;;;;;;5033965;28;20392;-77
2022/06/03 00:59:50;;;;;;;2.20;0.20;;;11.50;99.90;;;;;;5034838;28;20129;-77
2022/06/03 01:02:39;;;;;;;2.97;0.10;;;11.50;99.90;;;;;;5032619;28;20033;-77
2022/06/03 01:05:29;;;;;;;3.42;0.60;;;11.40;99.90;;;;;;5034421;28;20456;-77
2022/06/03 01:08:30;;;;;;;0.65;0.20;;;11.40;99.90;;;;;;5032891;28;20085;-77
2022/06/03 01:11:18;;;;;;;2.10;0.30;;;11.30;99.90;;;;;;5025624;28;20488;-78
2022/06/03 01:13:53;;;;;;;;;;;11.20;99.90;;;;;;5034517;28;20021;-77
2022/06/03 01:16:59;;;;;;;1.08;0.28;;;11.30;99.90;;;;;;5033922;28;19909;-77
2022/06/03 01:19:49;;;;;;;2.08;0.75;;;11.20;99.90;;;;;;5001176;28;20477;-77
2022/06/03 01:22:36;;;;;;;1.65;0.35;;;11.20;99.90;;;;;;5032587;28;20032;-77
2022/06/03 01:25:22;;;;;;;1.13;0.40;;;11.30;99.90;;;;;;5034172;28;20033;-77
2022/06/03 01:28:06;;;;;;;1.67;0.20;;;11.30;99.90;;;;;;5033767;28;20442;-77
2022/06/03 01:31:09;;;;;;;2.45;0.25;;;11.30;99.90;;;;;;5032556;28;20085;-77
2022/06/03 01:33:56;;;;;;;2.08;0.20;;;11.30;99.90;;;;;;5032643;28;20491;-77
2022/06/03 01:36:46;;;;;;;7.40;0.63;;;11.30;99.90;;;;;;5032510;28;20025;-77
2022/06/03 01:39:49;;;;;;;2.38;0.38;;;11.30;99.90;;;;;;5033656;28;20021;-78
2022/06/03 01:42:15;;;;;;;0.65;0.10;;;11.30;99.90;;;;;;5033674;28;20395;-77
2022/06/03 01:45:14;;;;;;;1.77;0.43;;;11.30;99.90;;;;;;5032141;28;20018;-77
2022/06/03 01:47:45;;;;;;;4.00;0.65;;;11.30;99.90;;;;;;5034108;28;20108;-77
2022/06/03 01:50:46;;;;;;;1.23;0.50;;;11.30;99.90;;;;;;5032739;28;20034;-77
2022/06/03 01:53:53;;;;;;;2.42;0.68;;;11.30;99.90;;;;;;5033607;28;20033;-77
2022/06/03 01:56:25;;;;;;;0.63;0.30;;;11.30;99.90;;;;;;5032869;28;20038;-77
2022/06/03 01:59:15;;;;;;;0.63;0.20;;;11.40;99.90;;;;;;5032268;28;20453;-77
2022/06/03 02:02:18;;;;;;;1.17;0.35;;;11.30;99.90;;;;;;5033363;28;20033;-77
2022/06/03 02:05:22;;;;;;;2.47;0.35;;;11.40;99.90;;;;;;5032010;28;20052;-77
2022/06/03 02:08:33;;;;;;;0.50;0.20;;;11.40;99.90;;;;;;5028322;28;20034;-77
2022/06/03 02:11:21;;;;;;;1.15;0.50;;;11.30;99.90;;;;;;5032954;28;20472;-77
2022/06/03 02:14:08;;;;;;;2.33;0.40;;;11.40;99.90;;;;;;5032162;28;20025;-77
2022/06/03 02:16:58;;;;;;;1.88;0.10;;;11.40;99.90;;;;;;5032289;28;20358;-77
2022/06/03 02:20:17;;;;;;;1.17;0.30;;;11.40;99.90;;;;;;5033887;28;20460;-78
2022/06/03 02:23:20;;;;;;;1.33;0.30;;;11.30;99.90;;;;;;4991757;28;20028;-77
2022/06/03 02:25:57;;;;;;;1.05;0.20;;;11.40;99.90;;;;;;4991826;28;20034;-77
2022/06/03 02:28:40;;;;;;;2.75;0.22;;;11.40;99.90;;;;;;5025029;28;20041;-75
2022/06/03 02:31:36;;;;;;;1.98;0.63;;;11.40;99.90;;;;;;5032960;28;20026;-75
2022/06/03 02:34:20;;;;;;;5.47;0.40;;;11.40;99.90;;;;;;5032848;28;20103;-75
2022/06/03 02:37:29;;;;;;;3.22;0.30;;;11.40;99.90;;;;;;5033245;28;20025;-75
2022/06/03 02:40:07;;;;;;;2.30;0.45;;;11.40;99.90;;;;;;5034026;28;20075;-75
2022/06/03 02:42:51;;;;;;;2.00;0.40;;;11.40;99.90;;;;;;5036529;28;20029;-75
2022/06/03 02:45:29;;;;;;;2.17;0.70;;;11.40;99.90;;;;;;5034849;28;20028;-75
2022/06/03 02:48:28;;;;;;;0.73;0.25;;;11.40;99.90;;;;;;5036578;28;20025;-75
2022/06/03 02:51:12;;;;;;;1.10;0.52;;;11.30;99.90;;;;;;5027025;28;20064;-74
2022/06/03 02:53:58;;;;;;;0.75;0.32;;;11.30;99.90;;;;;;5035929;28;20032;-75
2022/06/03 02:56:35;;;;;;;3.55;0.50;;;11.40;99.90;;;;;;5035861;28;20028;-75
2022/06/03 02:59:34;;;;;;;1.13;0.20;;;11.30;99.90;;;;;;5036454;28;20022;-75
2022/06/03 03:02:30;;;;;;;0.75;0.20;;;11.30;99.90;;;;;;5035663;28;20041;-74
2022/06/03 03:05:09;;;;;;;1.08;0.38;;;11.30;99.90;;;;;;5035599;28;20115;-74
2022/06/03 03:07:59;;;;;;;0.73;0.20;;;11.30;99.90;;;;;;5034475;28;20029;-75
2022/06/03 03:10:42;;;;;;;2.42;0.22;;;11.30;99.90;;;;;;5036073;28;20021;-75
2022/06/03 03:13:49;;;;;;;3.22;0.30;;;11.30;99.90;;;;;;5036106;28;20033;-75
2022/06/03 03:16:52;;;;;;;1.70;0.25;;;11.30;99.90;;;;;;5035710;28;20108;-75
2022/06/03 03:19:20;;;;;;;0.82;0.43;;;11.30;99.90;;;;;;5034181;28;20068;-74
2022/06/03 03:22:10;;;;;;;2.58;0.43;;;11.30;99.90;;;;;;5035395;28;20028;-75
2022/06/03 03:25:01;;;;;;;1.48;0.28;;;11.30;99.90;;;;;;5035969;28;20425;-74
2022/06/03 03:27:54;;;;;;;5.22;0.55;;;11.40;99.90;;;;;;5035490;28;20032;-75
2022/06/03 03:30:38;;;;;;;2.38;0.35;;;11.40;99.90;;;;;;5035682;28;20033;-75
2022/06/03 03:33:25;;;;;;;1.10;0.35;;;11.40;99.90;;;;;;5035274;28;20108;-75
2022/06/03 03:36:28;;;;;;;0.73;0.47;;;11.40;99.90;;;;;;5035451;28;20017;-75
2022/06/03 03:39:15;;;;;;;3.15;0.45;;;11.40;99.90;;;;;;5035222;28;20053;-75
2022/06/03 03:42:00;;;;;;;1.65;0.43;;;11.40;99.90;;;;;;5035131;28;20021;-74
2022/06/03 03:44:25;;;;;;;2.33;0.47;;;11.40;99.90;;;;;;5035088;28;20030;-74
2022/06/03 03:47:16;;;;;;;2.90;0.40;;;11.40;99.90;;;;;;5035304;28;20468;-75
2022/06/03 03:50:07;;;;;;;1.48;0.77;;;11.40;99.90;;;;;;5035015;28;20097;-74
2022/06/03 03:53:03;;;;;;;0.82;0.47;;;11.40;99.90;;;;;;5033806;28;20060;-74
2022/06/03 03:55:53;;;;;;;1.20;0.35;;;11.40;99.90;;;;;;5035103;28;20025;-74
2022/06/03 03:58:38;;;;;;;1.75;0.70;;;11.40;99.90;;;;;;5034858;28;20049;-74
2022/06/03 04:01:30;;;;;;;2.00;0.88;;;11.40;99.90;;;;;;5035259;28;20083;-74
2022/06/03 04:04:08;;;;;;;3.13;0.73;;;11.30;99.90;;;;;;5034787;28;20040;-74
2022/06/03 04:07:04;;;;;;;0.70;0.35;;;11.30;99.90;;;;;;5034612;28;20030;-74
2022/06/03 04:09:35;;;;;;;4.90;0.70;;;11.20;99.90;;;;;;5035164;28;20029;-76
2022/06/03 04:12:04;;;;;;;1.98;0.60;;;11.20;99.90;;;;;;5034473;28;20038;-75
2022/06/03 04:15:02;;;;;;;1.35;0.82;;;11.20;99.90;;;;;;5034429;28;20025;-75
2022/06/03 04:17:37;;;;;;;;;;;11.10;99.90;;;;;;5034934;28;20481;-75
2022/06/03 04:20:26;;;;;;;2.00;0.50;;;11.10;99.90;;;;;;5034705;28;19996;-74
2022/06/03 04:23:20;;;;;;;1.77;0.82;;;11.10;99.90;;;;;;5034948;28;20030;-75
2022/06/03 04:26:07;;;;;;;1.20;0.47;;;11.00;99.90;;;;;;5034468;28;20392;-75
2022/06/03 04:29:34;;;;;;;3.65;0.68;;;11.00;99.90;;;;;;5034608;28;20511;-74
2022/06/03 04:32:03;;;;;;;5.25;0.85;;;10.90;99.90;;;;;;5034094;28;20457;-74
2022/06/03 04:35:00;;;;;;;4.47;0.82;;;11.00;99.90;;;;;;5034115;28;20034;-74
2022/06/03 04:37:57;;;;;;;2.85;1.00;;;10.90;99.90;;;;;;5032881;28;20064;-74
2022/06/03 04:40:57;;;;;;;1.95;0.88;;;10.90;99.90;;;;;;5032866;28;20095;-74
2022/06/03 04:43:52;;;;;;;1.13;0.80;;;10.90;99.90;;;;;;5033947;28;20108;-74
2022/06/03 04:47:01;;;;;;;3.22;0.80;;;10.90;99.90;;;;;;5033914;28;20026;-74
2022/06/03 04:49:51;;;;;;;1.50;1.13;;;11.00;99.90;;;;;;5032584;28;20429;-74
2022/06/03 04:52:54;;;;;;;3.33;0.95;;;11.00;99.90;;;;;;5033698;28;20108;-75
2022/06/03 04:55:53;;;;;;;1.83;0.77;;;11.10;99.90;;;;;;5032431;28;20029;-74
2022/06/03 04:58:25;;;;;;;3.35;1.10;;;11.30;99.90;;;;;;5034024;28;20094;-75
2022/06/03 05:01:24;;;;;;;4.47;1.05;;;11.40;99.90;;;;;;5032401;28;20120;-74
2022/06/03 05:04:12;;;;;;;1.38;0.93;;;11.60;99.90;;;;;;5033672;28;20040;-75
2022/06/03 05:07:00;;;;;;;3.70;1.27;;;11.70;99.90;;;;;;5033876;28;20068;-75
2022/06/03 05:09:45;;;;;;;2.33;0.90;;;11.90;99.90;;;;;;5033610;28;20025;-75
2022/06/03 05:12:48;;;;;;;2.33;0.98;;;12.00;99.90;;;;;;5033442;28;20053;-75
2022/06/03 05:15:43;;;;;;;3.53;0.95;;;12.10;99.90;;;;;;5033449;28;20026;-75
2022/06/03 05:18:46;;;;;;;1.95;1.08;;;12.20;99.90;;;;;;5033707;28;20530;-75
2022/06/03 05:21:33;;;;;;;1.92;0.45;;;12.30;99.90;;;;;;5033385;28;20511;-75
2022/06/03 05:24:26;;;;;;;2.97;1.10;;;12.50;99.90;;;;;;5033350;28;20029;-75
2022/06/03 05:27:24;;;;;;;3.58;1.42;;;12.60;99.90;;;;;;5033346;28;20082;-75
2022/06/03 05:30:27;;;;;;;6.37;1.30;;;12.60;99.90;;;;;;5033344;28;20025;-75
2022/06/03 05:33:05;;;;;;;1.83;0.80;;;12.50;99.90;;;;;;5033127;28;20026;-75
2022/06/03 05:35:37;;;;;;;3.10;1.30;;;12.60;99.90;;;;;;5031914;28;20087;-75
2022/06/03 05:38:25;;;;;;;4.57;0.68;;;12.70;99.90;;;;;;5033103;28;20475;-75
2022/06/03 05:44:45;;;;;;;1.88;1.13;;;13.00;99.90;;;;;;5033438;28;20056;-75
2022/06/03 05:47:19;;;;;;;;;;;13.20;99.90;;;;;;5032272;28;20571;-75
2022/06/03 05:50:17;;;;;;;2.10;1.02;;;13.40;99.90;;;;;;5032961;28;19912;-75
2022/06/03 05:53:04;;;;;;;2.33;1.00;;;13.60;99.90;;;;;;5032970;28;20038;-75
2022/06/03 05:55:53;;;;;;;1.35;0.85;;;13.80;99.90;;;;;;5032917;28;20256;-75
2022/06/03 05:58:19;;;;;;;;;;;13.90;99.90;;;;;;5033437;28;20032;-75
2022/06/03 06:04:05;;;;;;;1.50;0.65;;;14.10;99.90;;;;;;5011849;28;20054;-75
2022/06/03 06:06:38;;;;;;;1.15;0.52;;;14.30;99.90;;;;;;5013367;28;20136;-75
2022/06/03 06:09:30;;;;;;;3.70;0.70;;;14.30;99.90;;;;;;5011929;28;20060;-75
2022/06/03 06:12:17;;;;;;;1.60;0.73;;;14.50;99.90;;;;;;5011968;28;20041;-75
2022/06/03 06:15:22;;;;;;;0.73;0.45;;;14.60;99.90;;;;;;5014493;28;20173;-75
2022/06/03 06:18:02;;;;;;;2.00;1.17;;;14.80;99.90;;;;;;5015706;28;20026;-75
2022/06/03 06:20:28;;;;;;;3.30;0.60;;;14.80;99.90;;;;;;5017213;28;20022;-75
2022/06/03 06:23:03;;;;;;;1.27;0.60;;;14.90;99.90;;;;;;5016835;28;20025;-75
2022/06/03 06:25:45;;;;;;;2.08;0.77;;;15.00;99.90;;;;;;5017080;28;20053;-75
2022/06/03 06:28:52;;;;;;;3.42;0.88;;;15.10;99.90;;;;;;5017157;28;20022;-75
2022/06/03 06:31:47;;;;;;;1.80;0.65;;;15.20;99.90;;;;;;4956073;29;20026;-75
2022/06/03 06:34:21;;;;;;;1.33;0.65;;;15.30;99.90;;;;;;5015772;28;20492;-75
2022/06/03 06:37:24;;;;;;;3.00;0.30;;;15.50;99.90;;;;;;5016593;28;20105;-75
2022/06/03 06:40:02;;;;;;;0.90;0.40;;;15.60;99.90;;;;;;5016551;28;20036;-75
2022/06/03 06:42:53;;;;;;;2.42;0.40;;;15.70;99.90;;;;;;5016398;28;20033;-74
2022/06/03 06:45:18;;;;;;;3.72;0.70;;;15.80;99.90;;;;;;5016471;28;20095;-74
2022/06/03 06:47:55;;;;;;;3.20;0.40;;;16.00;99.90;;;;;;5016173;28;20034;-74
2022/06/03 06:50:29;;;;;;;1.20;0.68;;;16.10;99.90;;;;;;5016204;28;20022;-74
2022/06/03 06:53:17;;;;;;;2.15;0.43;;;16.20;99.90;;;;;;5015721;28;20381;-74
2022/06/03 06:55:49;;;;;;;2.47;0.80;;;16.30;99.90;;;;;;5015049;28;20018;-76
2022/06/03 06:58:31;;;;;;;2.65;0.50;;;16.50;99.90;;;;;;5016365;28;20120;-75
2022/06/03 07:00:59;;;;;;;1.98;0.70;;;16.80;99.90;;;;;;5016717;28;20018;-75
2022/06/03 07:04:02;;;;;;;1.05;0.30;;;17.00;99.90;;;;;;5015830;28;20037;-75
2022/06/03 07:06:42;;;;;;;1.95;0.30;;;17.10;99.90;;;;;;5015929;28;20076;-75
2022/06/03 07:09:11;;;;;;;1.02;0.20;;;17.30;99.90;;;;;;5014683;28;20023;-76
2022/06/03 07:12:01;;;;;;;1.35;0.25;;;17.50;99.90;;;;;;5016028;28;20029;-76
2022/06/03 07:14:35;;;;;;;1.00;0.35;;;17.70;99.90;;;;;;5015733;28;20389;-75
2022/06/03 07:20:15;;;;;;;2.90;1.00;;;18.10;99.90;;;;;;5016113;28;20032;-75
2022/06/03 07:22:55;;;;;;;1.77;0.38;;;18.20;99.90;;;;;;5015876;28;20113;-75
2022/06/03 07:25:29;;;;;;;3.30;0.43;;;18.20;99.90;;;;;;5015480;28;20021;-76
2022/06/03 07:28:25;;;;;;;2.65;0.32;;;18.40;99.90;;;;;;5015978;28;20030;-75
2022/06/03 07:31:08;;;;;;;1.63;0.35;;;18.60;99.90;;;;;;5015714;28;20049;-75
2022/06/03 07:33:33;;;;;;;1.50;0.30;;;18.80;99.90;;;;;;5015534;28;20026;-76
2022/06/03 07:36:19;;;;;;;0.32;0.22;;;18.80;99.90;;;;;;5016033;28;20025;-76
2022/06/03 07:39:12;;;;;;;5.68;0.32;;;18.80;99.90;;;;;;5016044;28;20010;-75
2022/06/03 07:41:47;;;;;;;2.03;0.43;;;18.90;99.90;;;;;;5007638;28;20117;-76
2022/06/03 07:44:20;;;;;;;0.98;0.30;;;18.90;99.90;;;;;;5015291;28;20052;-76
2022/06/03 07:46:54;;;;;;;0.82;0.30;;;19.00;98.50;;;;;;5015338;28;20053;-76
2022/06/03 07:49:22;;;;;;;1.75;0.45;;;18.90;98.60;;;;;;5015297;28;20106;-76
2022/06/03 07:51:54;;;;;;;0.60;0.30;;;18.80;99.10;;;;;;5014050;28;20018;-75
2022/06/03 07:54:29;;;;;;;0.80;0.30;;;18.80;99.20;;;;;;5015345;28;20388;-75
2022/06/03 07:57:07;;;;;;;1.38;0.22;;;18.90;99.60;;;;;;5013798;28;20026;-76
2022/06/03 07:59:37;;;;;;;4.03;0.32;;;19.10;99.70;;;;;;5015286;28;20037;-75
2022/06/03 08:02:15;;;;;;;2.08;0.40;;;19.20;99.30;;;;;;5014906;28;20030;-75
2022/06/03 08:04:42;;;;;;;1.63;0.35;;;19.30;99.90;;;;;;5015029;28;20033;-76
2022/06/03 08:12:58;;;;;;;1.02;0.30;;;19.80;97.50;;;;;;5015593;28;20392;-76
2022/06/03 08:15:29;;;;;;;0.82;0.28;;;19.90;97.30;;;;;;5014801;28;20388;-76
2022/06/03 08:17:56;;;;;;;3.45;0.40;;;20.00;96.40;;;;;;5015070;28;20018;-76
2022/06/03 08:20:25;;;;;;;3.13;0.40;;;20.10;95.70;;;;;;5014832;28;20022;-75
2022/06/03 08:22:51;;;;;;;1.42;0.20;;;20.00;96.40;;;;;;5014027;28;20018;-76
2022/06/03 08:25:26;;;;;;;0.68;0.10;;;20.10;96.30;;;;;;5014961;28;20057;-76
2022/06/03 08:27:54;;;;;;;0.95;0.38;;;19.00;94.60;;;;;;5029838;28;20032;-76
2022/06/03 08:30:23;;;;;;;1.65;0.28;;;20.30;94.70;;;;;;5014584;28;20385;-76
2022/06/03 08:32:55;;;;;;;2.08;0.28;;;20.40;94.60;;;;;;5015037;28;20116;-76
2022/06/03 08:35:25;;;;;;;1.60;0.25;;;20.40;93.50;;;;;;5014516;28;20040;-76
2022/06/03 08:38:08;;;;;;;1.50;0.20;;;20.40;94.70;;;;;;5013900;28;20156;-76
2022/06/03 08:41:16;;;;;;;1.15;0.25;;;20.60;92.90;;;;;;5014439;28;20018;-75
2022/06/03 08:44:10;;;;;;;1.13;0.50;;;20.70;93.10;;;;;;5006062;28;20033;-76
2022/06/03 08:46:50;;;;;;;0.22;0.10;;;20.80;92.20;;;;;;5014507;28;20307;-76
2022/06/03 08:49:20;;;;;;;1.80;0.22;;;20.90;93.30;;;;;;5014186;28;20174;-76
2022/06/03 08:51:50;;;;;;;1.02;0.15;;;21.00;90.90;;;;;;5014373;28;20113;-76
2022/06/03 08:54:37;;;;;;;0.28;0.10;;;21.00;92.10;;;;;;5013981;28;20388;-76
2022/06/03 08:57:10;;;;;;;0.63;0.10;;;21.30;91.90;;;;;;5014657;28;20056;-76
2022/06/03 08:59:49;;;;;;;0.30;0.10;;;21.30;87.30;;;;;;5012808;28;20484;-76
2022/06/03 09:02:29;;;;;;;0.85;0.00;;;21.30;86.70;;;;;;5014000;28;20023;-75
2022/06/03 09:05:08;;;;;;;1.85;0.43;;;21.40;89.60;;;;;;5013877;28;20030;-76
2022/06/03 09:07:49;;;;;;;;;;;21.50;86.30;;;;;;5013195;28;20056;-76
2022/06/03 09:10:31;;;;;;;1.00;0.10;;;21.60;86.70;;;;;;5014225;28;19960;-76
2022/06/03 09:13:06;;;;;;;1.50;0.00;;;21.70;85.00;;;;;;5013795;28;20113;-75
2022/06/03 09:15:38;;;;;;;0.20;0.15;;;21.70;83.60;;;;;;5012520;28;20034;-76
2022/06/03 09:18:10;;;;;;;0.80;0.17;;;21.80;80.90;;;;;;5013969;28;20088;-75
2022/06/03 09:20:57;;;;;;;1.05;0.20;;;21.80;81.70;;;;;;5013668;28;20084;-75
2022/06/03 09:23:25;;;;;;;0.95;0.10;;;21.90;77.90;;;;;;5014342;28;20074;-76
2022/06/03 09:25:55;;;;;;;1.08;0.10;;;21.90;77.80;;;;;;5013902;28;20034;-76
2022/06/03 09:28:33;;;;;;;0.10;0.00;;;21.90;76.40;;;;;;5014198;28;20429;-76
2022/06/03 09:31:02;;;;;;;0.85;0.00;;;22.00;78.10;;;;;;5013563;28;20040;-76
2022/06/03 09:33:29;;;;;;;0.85;0.10;;;22.20;76.10;;;;;;5013576;28;20053;-76
2022/06/03 09:35:58;;;;;;;0.45;0.10;;;22.30;76.70;;;;;;5012282;28;20436;-76
2022/06/03 09:38:28;;;;;;;0.45;0.22;;;22.40;78.40;;;;;;5013752;28;20072;-77
2022/06/03 09:40:58;;;;;;;0.75;0.20;;;22.50;76.50;;;;;;5014037;28;20022;-76
2022/06/03 09:43:31;;;;;;;0.77;0.05;;;22.70;75.60;;;;;;5012246;28;20030;-76
2022/06/03 09:45:58;;;;;;;0.80;0.10;;;22.80;76.30;;;;;;5013825;28;20484;-75
2022/06/03 09:48:29;;;;;;;0.70;0.20;;;23.00;72.40;;;;;;5013501;28;20086;-75
2022/06/03 09:51:07;;;;;;;0.38;0.10;;;23.00;75.10;;;;;;5016731;28;20477;-75
2022/06/03 09:53:41;;;;;;;0.10;0.00;;;23.20;73.10;;;;;;5017994;28;20033;-75
2022/06/03 09:56:13;;;;;;;0.95;0.00;;;23.30;74.00;;;;;;5017483;28;20440;-75
2022/06/03 09:58:41;;;;;;;0.38;0.10;;;23.30;71.80;;;;;;5017345;28;20021;-75
2022/06/03 10:01:09;;;;;;;5.60;0.67;;;23.50;71.90;;;;;;5016185;28;20018;-76
2022/06/03 10:03:35;;;;;;;1.00;0.00;;;23.60;70.50;;;;;;5017212;28;20041;-76
2022/06/03 10:06:03;;;;;;;0.32;0.10;;;23.70;68.70;;;;;;5017046;28;20496;-76
2022/06/03 10:14:03;;;;;;;1.85;0.43;;;23.70;68.40;;;;;;5017729;28;20061;-76
2022/06/03 10:16:30;;;;;;;0.55;0.25;;;23.80;67.60;;;;;;5015670;28;20436;-76
2022/06/03 10:18:56;;;;;;;6.53;0.68;;;23.90;65.80;;;;;;5017028;28;20018;-77
2022/06/03 10:21:22;;;;;;;0.15;0.00;;;23.90;66.10;;;;;;5015630;28;20032;-76
2022/06/03 10:23:56;;;;;;;0.28;0.00;;;24.00;67.10;;;;;;5017221;28;20026;-76
2022/06/03 10:26:26;;;;;;;1.65;0.00;;;24.10;65.00;;;;;;5016802;28;20034;-76
2022/06/03 10:28:55;;;;;;;0.50;0.00;;;24.20;60.60;;;;;;5017157;28;20465;-76
2022/06/03 10:31:35;;;;;;;3.60;0.00;;;24.30;61.00;;;;;;5016673;28;20080;-76
2022/06/03 10:34:08;;;;;;;1.55;0.08;;;24.30;61.10;;;;;;5017257;28;20092;-77
2022/06/03 10:36:41;;;;;;;0.13;0.03;;;24.40;59.30;;;;;;5015449;28;20018;-75
2022/06/03 10:39:09;;;;;;;1.67;0.00;;;24.60;59.20;;;;;;5016691;28;20541;-75
2022/06/03 10:41:43;;;;;;;0.47;0.00;;;24.70;57.90;;;;;;5016624;28;20022;-75
2022/06/03 10:44:13;;;;;;;1.60;0.00;;;24.90;58.40;;;;;;5016507;28;20088;-75
2022/06/03 10:47:02;;;;;;;0.70;0.32;;;24.90;57.80;;;;;;5015258;28;20501;-74
2022/06/03 10:49:30;;;;;;;0.65;0.00;;;25.10;57.80;;;;;;5015476;28;20022;-76
2022/06/03 11:03:21;;;;;;;2.57;0.10;;;25.70;53.90;;;;;;5016841;28;20053;-76
2022/06/03 11:05:47;;;;;;;0.70;0.00;;;25.70;54.40;;;;;;5016260;28;20787;-76
2022/06/03 11:08:13;;;;;;;0.00;0.00;;;25.70;55.50;;;;;;5016288;28;20391;-76
2022/06/03 11:10:40;;;;;;;0.32;0.00;;;26.00;56.40;;;;;;5015080;28;20030;-74
2022/06/03 11:13:08;;;;;;;0.55;0.00;;;26.10;54.00;;;;;;5014724;28;20037;-75
2022/06/03 11:15:54;;;;;;;0.30;0.10;;;26.30;53.10;;;;;;5014772;28;20044;-74
2022/06/03 11:18:21;;;;;;;0.75;0.00;;;26.50;52.10;;;;;;5014661;28;20022;-76
2022/06/03 11:20:50;;;;;;;1.90;0.15;;;26.60;50.40;;;;;;5014585;28;20072;-76
2022/06/03 11:23:17;;;;;;;0.68;0.00;;;26.70;50.10;;;;;;5016084;28;20037;-76
2022/06/03 11:25:57;;;;;;;0.32;0.00;;;26.60;50.10;;;;;;5015658;28;20499;-76
2022/06/03 11:28:34;;;;;;;0.40;0.10;;;26.60;50.30;;;;;;5015817;28;20021;-75
2022/06/03 11:31:41;;;;;;;1.52;0.00;;;26.70;50.30;;;;;;5018375;28;20029;-75
2022/06/03 11:34:33;;;;;;;0.15;0.10;;;26.80;50.90;;;;;;4990929;28;20045;-74
2022/06/03 11:37:03;;;;;;;0.30;0.00;;;26.90;50.00;;;;;;5015004;28;20033;-76
2022/06/03 11:39:41;;;;;;;0.32;0.00;;;27.00;49.60;;;;;;5015647;28;20062;-76
2022/06/03 11:42:31;;;;;;;1.92;0.00;;;27.00;47.70;;;;;;5015542;28;20076;-75
2022/06/03 11:45:14;;;;;;;0.52;0.00;;;27.00;47.70;;;;;;5004674;28;20042;-75
2022/06/03 11:47:49;;;;;;;0.77;0.00;;;27.10;48.70;;;;;;5015522;28;20053;-74
2022/06/03 11:50:18;;;;;;;0.00;0.00;;;27.30;48.10;;;;;;5014106;28;20033;-74
2022/06/03 11:52:44;;;;;;;1.27;0.00;;;27.40;42.80;;;;;;5015741;28;20421;-76
2022/06/03 11:55:11;;;;;;;0.40;0.00;;;27.60;44.60;;;;;;5015221;28;20046;-76
2022/06/03 11:57:40;;;;;;;0.45;0.00;;;27.70;42.60;;;;;;5017351;28;20045;-78
2022/06/03 12:00:13;;;;;;;0.00;0.00;;;27.90;43.00;;;;;;5016282;28;20069;-74
2022/06/03 12:02:56;;;;;;;1.55;0.00;;;28.00;42.90;;;;;;5015105;28;20041;-74
2022/06/03 12:05:29;;;;;;;0.20;0.00;;;28.00;43.40;;;;;;5014811;28;20030;-74
2022/06/03 12:08:14;;;;;;;1.10;0.00;;;28.10;44.00;;;;;;5015259;28;20101;-76
2022/06/03 12:10:48;;;;;;;0.08;0.00;;;28.10;43.30;;;;;;5015145;28;20025;-74
2022/06/03 12:13:30;;;;;;;3.83;0.60;;;28.20;42.60;;;;;;5013647;28;20026;-76
2022/06/03 12:15:56;;;;;;;2.92;0.00;;;28.40;43.40;;;;;;5014975;28;20026;-76
2022/06/03 12:18:30;;;;;;;2.40;0.00;;;28.40;43.10;;;;;;5014910;28;20377;-75
2022/06/03 12:20:57;;;;;;;0.20;0.00;;;28.40;44.10;;;;;;5014637;28;20113;-76
2022/06/03 12:23:22;;;;;;;0.00;0.00;;;28.30;43.80;;;;;;5015989;28;20101;-75
2022/06/03 12:25:57;;;;;;;1.55;0.00;;;28.40;43.10;;;;;;5014791;28;20544;-75
2022/06/03 12:28:45;;;;;;;2.53;0.00;;;28.40;43.70;;;;;;5014836;28;20045;-75
2022/06/03 12:31:24;;;;;;;;;;;28.10;43.00;;;;;;5014379;28;20037;-75
2022/06/03 12:33:58;;;;;;;0.63;0.00;;;27.80;45.50;;;;;;5014815;28;19909;-75
2022/06/03 12:36:24;;;;;;;3.08;0.20;;;28.00;47.70;;;;;;5014514;28;20098;-75
2022/06/03 12:38:56;;;;;;;0.15;0.00;;;28.10;45.20;;;;;;5013177;28;20500;-75
2022/06/03 12:41:46;;;;;;;6.95;0.55;;;28.40;45.50;;;;;;5014915;28;20018;-75
2022/06/03 12:44:33;;;;;;;12.80;0.80;;;28.90;45.00;;;;;;5014348;28;20168;-75
2022/06/03 12:47:18;;;;;;;7.20;0.52;;;29.30;44.60;;;;;;5014756;28;20026;-74
2022/06/03 12:49:43;;;;;;;0.90;0.32;;;29.30;43.40;;;;;;5015421;28;20405;-78
2022/06/03 12:52:29;;;;;;;0.98;0.00;;;29.50;41.40;;;;;;5022858;28;20026;-78
2022/06/03 12:55:06;;;;;;;0.55;0.00;;;29.60;41.10;;;;;;5008679;28;20079;-78
2022/06/03 12:57:50;;;;;;;0.17;0.00;;;29.70;41.00;;;;;;5018861;28;20563;-78
2022/06/03 13:00:19;;;;;;;0.82;0.00;;;29.70;43.20;;;;;;5019230;28;20026;-78
2022/06/03 13:02:47;;;;;;;0.00;0.00;;;29.40;41.60;;;;;;5019334;28;20030;-78
2022/06/03 13:05:42;;;;;;;0.10;0.00;;;29.20;42.60;;;;;;5023683;28;20026;-78
2022/06/03 13:08:26;;;;;;;0.10;0.00;;;29.20;41.80;;;;;;5021775;28;20029;-78
2022/06/03 13:11:19;;;;;;;1.65;0.10;;;29.00;41.80;;;;;;5015421;28;20033;-75
2022/06/03 13:14:07;;;;;;;0.10;0.00;;;29.00;43.10;;;;;;5014407;28;20473;-76
2022/06/03 13:16:35;;;;;;;0.28;0.00;;;29.10;43.50;;;;;;5005730;28;20038;-76
2022/06/03 13:19:17;;;;;;;0.00;0.00;;;29.20;43.40;;;;;;5012952;28;20489;-76
2022/06/03 13:22:07;;;;;;;0.25;0.00;;;29.30;42.80;;;;;;5015622;28;20025;-75
2022/06/03 13:25:23;;;;;;;2.28;0.00;;;29.70;42.70;;;;;;5012573;28;20617;-74
2022/06/03 13:28:14;;;;;;;0.38;0.00;;;29.90;43.80;;;;;;5014103;28;20477;-77
2022/06/03 13:30:40;;;;;;;0.43;0.10;;;30.20;42.00;;;;;;5102155;22;20131;-76
2022/06/03 13:33:20;;;;;;;0.82;0.00;;;30.90;42.10;;;;;;5053551;28;20033;-76
2022/06/03 13:36:05;;;;;;;0.00;0.00;;;30.70;41.60;;;;;;5052351;28;20393;-77
2022/06/03 13:38:47;;;;;;;0.15;0.00;;;30.70;41.80;;;;;;5055728;28;20515;-77
2022/06/03 13:44:38;;;;;;;0.80;0.10;;;30.50;41.60;;;;;;5057175;28;20119;-78
2022/06/03 13:47:18;;;;;;;0.00;0.00;;;30.50;41.30;;;;;;5056011;28;20430;-78
2022/06/03 13:50:03;;;;;;;0.00;0.00;;;30.40;41.50;;;;;;5057571;28;20410;-78
2022/06/03 13:52:39;;;;;;;1.40;0.20;;;30.30;42.50;;;;;;5057264;28;20116;-78
2022/06/03 13:55:23;;;;;;;0.17;0.00;;;30.50;42.50;;;;;;5056032;28;20112;-78
2022/06/03 13:57:52;;;;;;;3.20;0.00;;;30.60;42.60;;;;;;5066959;28;20028;-78
2022/06/03 14:00:28;;;;;;;1.38;0.00;;;30.80;40.80;;;;;;5067576;28;20032;-78
2022/06/03 14:03:13;;;;;;;1.35;0.00;;;30.80;40.80;;;;;;5068037;28;20025;-80
2022/06/03 14:05:47;;;;;;;0.32;0.00;;;31.00;41.80;;;;;;5067566;28;20101;-78
2022/06/03 14:08:14;;;;;;;0.50;0.00;;;31.30;41.00;;;;;;5068633;28;20090;-78
2022/06/03 14:11:01;;;;;;;1.55;0.00;;;31.40;42.40;;;;;;5067465;28;20025;-78
2022/06/03 14:13:42;;;;;;;0.00;0.00;;;31.40;41.50;;;;;;5068629;28;20051;-78
2022/06/03 14:16:15;;;;;;;0.30;0.00;;;31.20;38.80;;;;;;5064073;28;20416;-78
2022/06/03 14:18:55;;;;;;;1.60;0.00;;;31.30;40.40;;;;;;5061236;28;20017;-78
2022/06/03 14:21:45;;;;;;;2.53;0.00;;;31.20;41.50;;;;;;5052043;28;20031;-78
2022/06/03 14:24:29;;;;;;;0.90;0.00;;;30.90;40.90;;;;;;5060106;28;20108;-78
2022/06/03 14:27:12;;;;;;;0.47;0.00;;;30.80;40.10;;;;;;5060845;28;20025;-78
2022/06/03 14:29:48;;;;;;;0.57;0.00;;;30.80;41.20;;;;;;5058387;28;20036;-78
2022/06/03 14:32:19;;;;;;;0.30;0.00;;;30.80;42.10;;;;;;5061150;28;20482;-78
2022/06/03 14:35:11;;;;;;;0.00;0.00;;;31.10;40.40;;;;;;5060269;28;20021;-78
2022/06/03 14:37:48;;;;;;;3.95;0.00;;;31.20;41.10;;;;;;5060280;28;20096;-78
2022/06/03 14:40:20;;;;;;;1.80;0.00;;;31.30;39.90;;;;;;5060183;28;20021;-78